createdAt,value
2022-10-11T00:00:52.168Z,17.40
2022-10-11T00:03:29.364Z,14.57
2022-10-11T00:06:07.844Z,15.68
2022-10-11T00:08:41.587Z,16.60
2022-10-11T00:11:13.925Z,16.08
2022-10-11T00:13:41.997Z,12.93
2022-10-11T00:16:11.299Z,16.05
2022-10-11T00:18:40.971Z,12.73
2022-10-11T00:21:11.999Z,13.75
2022-10-11T00:23:40.144Z,13.45
2022-10-11T00:26:10.205Z,15.10
2022-10-11T00:28:38.684Z,14.75
2022-10-11T00:31:09.291Z,13.23
2022-10-11T00:33:38.048Z,17.02
2022-10-11T00:36:09.123Z,11.07
2022-10-11T00:38:37.402Z,11.90
2022-10-11T00:41:05.525Z,12.95
2022-10-11T00:43:34.719Z,16.00
2022-10-11T00:46:07.439Z,11.00
2022-10-11T00:48:41.549Z,14.95
2022-10-11T00:51:17.624Z,12.73
2022-10-11T00:53:48.434Z,16.70
2022-10-11T00:56:21.761Z,12.95
2022-10-11T00:58:49.926Z,12.50
2022-10-11T01:01:18.037Z,13.18
2022-10-11T01:03:46.244Z,12.77
2022-10-11T01:06:15.581Z,15.37
2022-10-11T01:08:44.376Z,10.65
2022-10-11T01:11:15.749Z,11.68
2022-10-11T01:13:54.968Z,10.43
2022-10-11T01:16:30.477Z,10.88
2022-10-11T01:19:09.916Z,15.40
2022-10-11T01:21:47.287Z,13.02
2022-10-11T01:24:40.859Z,12.75
2022-10-11T01:27:35.610Z,17.75
2022-10-11T01:30:15.843Z,10.63
2022-10-11T01:32:50.236Z,11.48
2022-10-11T01:35:25.904Z,11.77
2022-10-11T01:37:59.703Z,11.43
2022-10-11T01:40:33.593Z,13.15
2022-10-11T01:43:03.520Z,12.15
2022-10-11T01:45:35.422Z,15.07
2022-10-11T01:48:06.548Z,11.80
2022-10-11T01:50:39.608Z,15.27
2022-10-11T01:53:26.427Z,12.52
2022-10-11T01:55:58.693Z,13.73
2022-10-11T01:58:37.880Z,11.15
2022-10-11T02:01:18.389Z,11.93
2022-10-11T02:03:52.413Z,14.98
2022-10-11T02:06:26.661Z,13.60
2022-10-11T02:09:04.370Z,12.63
2022-10-11T02:11:37.503Z,12.15
2022-10-11T02:14:11.396Z,11.40
2022-10-11T02:16:45.530Z,12.70
2022-10-11T02:19:16.447Z,11.63
2022-10-11T02:21:48.383Z,11.02
2022-10-11T02:24:20.449Z,10.95
2022-10-11T02:26:54.559Z,11.95
2022-10-11T02:29:26.319Z,12.20
2022-10-11T02:31:59.808Z,12.55
2022-10-11T02:34:32.576Z,12.05
2022-10-11T02:37:05.437Z,11.02
2022-10-11T02:39:40.707Z,12.32
2022-10-11T02:42:15.033Z,11.23
2022-10-11T02:44:47.920Z,12.50
2022-10-11T02:47:18.059Z,12.65
2022-10-11T02:49:46.948Z,10.20
2022-10-11T02:52:15.621Z,11.57
2022-10-11T02:54:43.647Z,11.30
2022-10-11T02:57:11.563Z,13.10
2022-10-11T02:59:39.517Z,10.88
2022-10-11T03:02:07.636Z,11.27
2022-10-11T03:04:37.001Z,13.40
2022-10-11T03:07:04.949Z,11.18
2022-10-11T03:09:32.930Z,11.98
2022-10-11T03:12:00.925Z,11.38
2022-10-11T03:14:29.353Z,15.07
2022-10-11T03:17:07.965Z,11.77
2022-10-11T03:19:47.587Z,12.10
2022-10-11T03:22:15.814Z,14.52
2022-10-11T03:24:43.699Z,11.43
2022-10-11T03:27:11.630Z,10.85
2022-10-11T03:29:39.608Z,11.77
2022-10-11T03:32:07.608Z,12.02
2022-10-11T03:34:35.581Z,13.70
2022-10-11T03:37:04.918Z,12.02
2022-10-11T03:39:32.894Z,12.90
2022-10-11T03:42:00.977Z,13.23
2022-10-11T03:44:28.936Z,13.00
2022-10-11T03:46:57.154Z,12.05
2022-10-11T03:49:25.219Z,13.13
2022-10-11T03:51:53.178Z,12.23
2022-10-11T03:54:22.701Z,11.98
2022-10-11T03:56:50.718Z,12.38
2022-10-11T03:59:18.661Z,14.07
2022-10-11T04:01:46.654Z,13.77
2022-10-11T04:04:14.721Z,10.93
2022-10-11T04:06:42.816Z,19.50
2022-10-11T04:09:10.747Z,12.73
2022-10-11T04:11:40.519Z,15.27
2022-10-11T04:14:08.485Z,11.77
2022-10-11T04:16:38.685Z,11.65
2022-10-11T04:19:06.948Z,11.48
2022-10-11T04:21:34.920Z,12.35
2022-10-11T04:24:02.870Z,10.95
2022-10-11T04:26:30.821Z,13.35
2022-10-11T04:29:00.233Z,13.25
2022-10-11T04:31:28.239Z,11.88
2022-10-11T04:33:57.094Z,12.40
2022-10-11T04:36:25.393Z,16.20
2022-10-11T04:38:56.138Z,14.07
2022-10-11T04:41:24.061Z,14.18
2022-10-11T04:43:52.105Z,10.80
2022-10-11T04:46:21.590Z,13.90
2022-10-11T04:48:49.523Z,13.57
2022-10-11T04:51:17.480Z,13.52
2022-10-11T04:53:45.469Z,17.50
2022-10-11T04:56:15.080Z,12.20
2022-10-11T04:58:43.036Z,12.70
2022-10-11T05:01:11.857Z,14.50
2022-10-11T05:03:41.248Z,14.35
2022-10-11T05:06:09.889Z,13.30
2022-10-11T05:08:39.320Z,14.35
2022-10-11T05:11:09.516Z,12.82
2022-10-11T05:13:38.024Z,15.05
2022-10-11T05:16:10.603Z,13.27
2022-10-11T05:18:39.379Z,14.75
2022-10-11T05:21:15.931Z,13.87
2022-10-11T05:23:44.211Z,17.92
2022-10-11T05:26:12.347Z,13.70
2022-10-11T05:28:40.623Z,14.93
2022-10-11T05:31:08.654Z,17.50
2022-10-11T05:33:36.976Z,16.85
2022-10-11T05:36:06.576Z,16.25
2022-10-11T05:38:36.248Z,14.95
2022-10-11T05:41:05.320Z,15.70
2022-10-11T05:43:33.555Z,13.05
2022-10-11T05:46:01.981Z,13.93
2022-10-11T05:48:30.090Z,16.23
2022-10-11T05:51:02.135Z,18.08
2022-10-11T05:53:30.944Z,13.38
2022-10-11T05:56:00.271Z,16.33
2022-10-11T05:58:28.932Z,12.90
2022-10-11T06:00:57.920Z,13.88
2022-10-11T06:05:57.039Z,16.00
2022-10-11T06:08:25.412Z,14.05
2022-10-11T06:10:55.760Z,15.00
2022-10-11T06:13:25.070Z,14.07
2022-10-11T06:15:52.990Z,16.60
2022-10-11T06:18:20.961Z,16.85
2022-10-11T06:20:49.302Z,16.10
2022-10-11T06:23:17.224Z,16.67
2022-10-11T06:25:45.520Z,16.02
2022-10-11T06:28:13.956Z,20.92
2022-10-11T06:30:43.304Z,22.27
2022-10-11T06:33:17.094Z,16.38
2022-10-11T06:35:45.028Z,14.88
2022-10-11T06:38:13.231Z,17.98
2022-10-11T06:40:41.345Z,19.00
2022-10-11T06:43:09.291Z,16.83
2022-10-11T06:45:37.292Z,15.77
2022-10-11T06:48:07.454Z,18.58
2022-10-11T06:50:58.546Z,18.40
2022-10-11T06:53:23.367Z,19.87
2022-10-11T06:55:51.436Z,18.13
2022-10-11T06:58:19.395Z,20.58
2022-10-11T07:00:47.437Z,19.80
2022-10-11T07:03:16.845Z,19.13
2022-10-11T07:05:45.011Z,22.05
2022-10-11T07:08:12.956Z,19.40
2022-10-11T07:10:41.065Z,22.33
2022-10-11T07:13:11.442Z,21.30
2022-10-11T07:15:42.028Z,23.83
2022-10-11T07:18:10.047Z,17.40
2022-10-11T07:20:39.475Z,19.90
2022-10-11T07:23:07.389Z,18.45
2022-10-11T07:25:35.378Z,20.70
2022-10-11T07:28:03.367Z,19.63
2022-10-11T07:30:31.361Z,16.05
2022-10-11T07:32:59.341Z,17.90
2022-10-11T07:35:27.300Z,16.60
2022-10-11T07:37:56.679Z,18.08
2022-10-11T07:40:24.860Z,15.65
2022-10-11T07:42:52.767Z,19.00
2022-10-11T07:45:20.896Z,17.47
2022-10-11T07:47:48.896Z,18.50
2022-10-11T07:50:17.107Z,19.92
2022-10-11T07:52:45.140Z,18.70
2022-10-11T07:55:14.484Z,18.55
2022-10-11T07:57:42.524Z,20.13
2022-10-11T08:00:11.625Z,18.83
2022-10-11T08:02:42.148Z,19.25
2022-10-11T08:05:10.249Z,20.05
2022-10-11T08:07:38.479Z,20.90
2022-10-11T08:10:08.003Z,22.27
2022-10-11T08:12:37.289Z,23.98
2022-10-11T08:15:05.870Z,24.65
2022-10-11T08:17:33.934Z,19.08
2022-10-11T08:20:01.887Z,21.13
2022-10-11T08:22:30.535Z,19.97
2022-10-11T08:24:58.456Z,24.83
2022-10-11T08:27:26.492Z,27.00
2022-10-11T08:29:55.862Z,22.93
2022-10-11T08:32:23.800Z,19.98
2022-10-11T08:34:52.931Z,23.40
2022-10-11T08:37:20.896Z,23.10
2022-10-11T08:39:48.830Z,21.42
2022-10-11T08:42:27.416Z,21.70
2022-10-11T08:45:10.450Z,22.10
2022-10-11T08:47:41.917Z,19.38
2022-10-11T08:50:18.980Z,22.73
2022-10-11T08:52:51.857Z,23.77
2022-10-11T08:55:27.282Z,24.67
2022-10-11T08:57:57.589Z,22.58
2022-10-11T09:00:31.881Z,25.13
2022-10-11T09:03:09.331Z,22.33
2022-10-11T09:05:48.491Z,21.42
2022-10-11T09:11:00.649Z,27.38
2022-10-11T09:13:52.555Z,23.38
2022-10-11T09:16:32.626Z,23.90
2022-10-11T09:19:21.624Z,22.75
2022-10-11T09:22:01.533Z,24.25
2022-10-11T09:24:45.793Z,24.38
2022-10-11T09:27:57.344Z,22.02
2022-10-11T09:30:21.793Z,21.23
2022-10-11T09:33:00.617Z,24.02
2022-10-11T09:35:33.744Z,23.77
2022-10-11T09:38:07.765Z,23.75
2022-10-11T09:40:52.525Z,25.65
2022-10-11T09:43:20.498Z,26.05
2022-10-11T09:45:49.626Z,28.10
2022-10-11T09:48:24.074Z,24.92
2022-10-11T09:50:53.479Z,27.55
2022-10-11T09:53:22.024Z,24.55
2022-10-11T09:55:54.259Z,24.42
2022-10-11T09:58:31.144Z,23.30
2022-10-11T10:01:07.299Z,26.85
2022-10-11T10:03:39.480Z,29.98
2022-10-11T10:06:10.463Z,26.88
2022-10-11T10:08:39.291Z,29.98
2022-10-11T10:13:44.920Z,29.23
2022-10-11T10:16:26.166Z,30.33
2022-10-11T10:18:57.929Z,30.70
2022-10-11T10:21:29.693Z,32.42
2022-10-11T10:24:00.159Z,32.90
2022-10-11T10:26:28.551Z,33.15
2022-10-11T10:29:04.962Z,30.85
2022-10-11T10:31:55.239Z,30.42
2022-10-11T10:34:32.066Z,31.95
2022-10-11T10:37:04.866Z,33.70
2022-10-11T10:39:40.564Z,34.70
2022-10-11T10:42:15.055Z,46.78
2022-10-11T10:44:43.881Z,44.95
2022-10-11T10:47:20.308Z,44.05
2022-10-11T10:49:58.223Z,38.17
2022-10-11T10:52:47.262Z,42.33
2022-10-11T10:55:23.750Z,39.70
2022-10-11T10:58:05.158Z,36.78
2022-10-11T11:00:42.689Z,41.17
2022-10-11T11:03:17.111Z,40.75
2022-10-11T11:05:55.269Z,40.03
2022-10-11T11:08:39.907Z,41.65
2022-10-11T11:11:32.484Z,42.65
2022-10-11T11:14:11.490Z,36.38
2022-10-11T11:16:49.743Z,38.00
2022-10-11T11:19:31.829Z,39.47
2022-10-11T11:22:07.697Z,45.90
2022-10-11T11:24:43.569Z,40.15
2022-10-11T11:27:20.821Z,41.10
2022-10-11T11:30:00.205Z,39.22
2022-10-11T11:32:44.770Z,39.95
2022-10-11T11:35:18.226Z,39.20
2022-10-11T11:37:51.970Z,44.17
2022-10-11T11:40:35.270Z,44.30
2022-10-11T11:43:08.413Z,42.30
2022-10-11T11:45:47.547Z,38.00
2022-10-11T11:48:19.683Z,42.30
2022-10-11T11:50:54.564Z,39.55
2022-10-11T11:53:33.185Z,46.05
2022-10-11T11:56:05.577Z,38.15
2022-10-11T11:58:41.862Z,40.80
2022-10-11T12:01:26.455Z,39.42
2022-10-11T12:04:00.641Z,40.90
2022-10-11T12:06:31.708Z,43.42
2022-10-11T12:09:08.932Z,39.75
2022-10-11T12:11:43.570Z,42.85
2022-10-11T12:14:18.557Z,47.10
2022-10-11T12:17:21.772Z,41.75
2022-10-11T12:20:14.638Z,42.22
2022-10-11T12:22:58.346Z,43.65
2022-10-11T12:25:43.709Z,43.20
2022-10-11T12:28:49.134Z,45.22
2022-10-11T12:31:21.679Z,45.03
2022-10-11T12:33:53.073Z,56.88
2022-10-11T12:36:36.765Z,41.35
2022-10-11T12:39:38.073Z,46.92
2022-10-11T12:42:25.490Z,43.90
2022-10-11T12:45:32.113Z,45.67
2022-10-11T12:48:40.618Z,43.50
2022-10-11T12:51:28.972Z,46.72
2022-10-11T12:54:26.601Z,46.00
2022-10-11T12:57:17.257Z,47.17
2022-10-11T12:59:47.277Z,45.85
2022-10-11T13:02:28.975Z,51.50
2022-10-11T13:05:08.312Z,55.88
2022-10-11T13:07:37.115Z,49.97
2022-10-11T13:10:06.215Z,51.40
2022-10-11T13:12:41.536Z,47.22
2022-10-11T13:15:16.549Z,52.75
2022-10-11T13:17:44.618Z,57.92
2022-10-11T13:20:19.894Z,55.17
2022-10-11T13:22:49.412Z,55.67
2022-10-11T13:25:20.856Z,51.35
2022-10-11T13:27:50.611Z,53.97
2022-10-11T13:30:22.241Z,55.88
2022-10-11T13:32:50.467Z,58.38
2022-10-11T13:35:25.119Z,54.25
2022-10-11T13:37:53.221Z,52.70
2022-10-11T13:40:23.216Z,51.78
2022-10-11T13:42:53.463Z,53.65
2022-10-11T13:45:25.706Z,53.03
2022-10-11T13:47:55.282Z,55.67
2022-10-11T13:50:31.744Z,50.80
2022-10-11T13:53:01.652Z,55.50
2022-10-11T13:55:33.605Z,53.58
2022-10-11T13:58:03.452Z,55.83
2022-10-11T14:00:38.441Z,60.88
2022-10-11T14:03:18.104Z,55.00
2022-10-11T14:05:55.004Z,56.67
2022-10-11T14:08:29.699Z,54.97
2022-10-11T14:11:01.283Z,55.03
2022-10-11T14:13:36.468Z,56.70
2022-10-11T14:16:11.628Z,54.13
2022-10-11T14:18:45.658Z,58.70
2022-10-11T14:21:34.993Z,55.40
2022-10-11T14:24:08.199Z,55.15
2022-10-11T14:26:38.487Z,57.03
2022-10-11T14:29:09.701Z,57.75
2022-10-11T14:31:42.017Z,56.40
2022-10-11T14:34:17.712Z,58.28
2022-10-11T14:36:45.721Z,62.83
2022-10-11T14:39:16.619Z,62.03
2022-10-11T14:41:44.778Z,59.97
2022-10-11T14:44:12.753Z,58.63
2022-10-11T14:46:42.748Z,59.03
2022-10-11T14:49:15.716Z,55.60
2022-10-11T14:51:44.719Z,56.42
2022-10-11T14:54:14.010Z,57.88
2022-10-11T14:56:42.051Z,59.70
2022-10-11T14:59:15.061Z,63.23
2022-10-11T15:01:46.283Z,53.58
2022-10-11T15:04:14.297Z,54.33
2022-10-11T15:06:42.864Z,60.07
2022-10-11T15:09:11.346Z,60.75
2022-10-11T15:11:39.490Z,58.78
2022-10-11T15:14:07.840Z,57.60
2022-10-11T15:16:36.606Z,62.08
2022-10-11T15:19:06.061Z,62.55
2022-10-11T15:21:35.383Z,61.28
2022-10-11T15:24:03.414Z,65.53
2022-10-11T15:26:36.207Z,66.00
2022-10-11T15:29:05.191Z,67.18
2022-10-11T15:31:38.091Z,66.38
2022-10-11T15:34:17.754Z,65.10
2022-10-11T15:36:51.078Z,68.28
2022-10-11T15:39:31.535Z,69.00
2022-10-11T15:41:59.763Z,75.63
2022-10-11T15:44:34.316Z,67.30
2022-10-11T15:47:02.251Z,73.70
2022-10-11T15:49:39.995Z,70.05
2022-10-11T15:52:09.815Z,72.18
2022-10-11T15:54:41.986Z,76.25
2022-10-11T15:57:15.305Z,72.00
2022-10-11T15:59:47.509Z,77.85
2022-10-11T16:02:16.259Z,76.85
2022-10-11T16:04:45.568Z,75.68
2022-10-11T16:07:13.567Z,76.88
2022-10-11T16:09:41.548Z,72.90
2022-10-11T16:12:09.499Z,76.63
2022-10-11T16:14:37.607Z,78.00
2022-10-11T16:17:08.024Z,81.70
2022-10-11T16:19:36.438Z,77.32
2022-10-11T16:22:05.891Z,72.40
2022-10-11T16:24:33.829Z,76.90
2022-10-11T16:27:02.184Z,75.03
2022-10-11T16:29:30.249Z,77.70
2022-10-11T16:31:58.227Z,73.60
2022-10-11T16:34:26.235Z,74.70
2022-10-11T16:36:54.262Z,70.07
2022-10-11T16:39:24.025Z,71.77
2022-10-11T16:41:52.020Z,67.15
2022-10-11T16:44:24.057Z,71.17
2022-10-11T16:46:52.608Z,73.03
2022-10-11T16:49:23.022Z,72.97
2022-10-11T16:51:51.491Z,73.28
2022-10-11T16:54:20.913Z,75.88
2022-10-11T16:56:50.848Z,76.65
2022-10-11T16:59:19.005Z,67.95
2022-10-11T17:01:47.347Z,66.75
2022-10-11T17:04:16.113Z,73.07
2022-10-11T17:06:44.939Z,70.57
2022-10-11T17:09:13.446Z,76.43
2022-10-11T17:11:41.851Z,73.38
2022-10-11T17:14:12.740Z,76.43
2022-10-11T17:16:41.146Z,74.45
2022-10-11T17:19:12.142Z,77.70
2022-10-11T17:21:41.029Z,74.75
2022-10-11T17:26:36.955Z,81.18
2022-10-11T17:29:05.341Z,83.30
2022-10-11T17:31:36.526Z,86.22
2022-10-11T17:34:04.410Z,79.68
2022-10-11T17:36:34.868Z,86.00
2022-10-11T17:39:05.122Z,82.22
2022-10-11T17:41:33.233Z,75.50
2022-10-11T17:44:02.850Z,85.40
2022-10-11T17:46:32.808Z,85.50
2022-10-11T17:49:05.181Z,86.82
2022-10-11T17:51:34.218Z,82.97
2022-10-11T17:54:02.218Z,90.65
2022-10-11T17:56:35.192Z,76.30
2022-10-11T17:59:05.472Z,83.45
2022-10-11T18:01:33.615Z,77.57
2022-10-11T18:04:05.999Z,78.30
2022-10-11T18:06:39.178Z,77.35
2022-10-11T18:09:07.235Z,78.22
2022-10-11T18:11:35.852Z,75.30
2022-10-11T18:14:05.176Z,84.03
2022-10-11T18:16:34.089Z,80.50
2022-10-11T18:19:04.902Z,80.85
2022-10-11T18:21:34.845Z,75.72
2022-10-11T18:24:05.055Z,74.00
2022-10-11T18:26:33.267Z,78.38
2022-10-11T18:29:01.739Z,88.00
2022-10-11T18:31:31.546Z,78.88
2022-10-11T18:33:59.473Z,80.82
2022-10-11T18:36:31.561Z,85.67
2022-10-11T18:39:01.961Z,83.28
2022-10-11T18:41:32.390Z,83.88
2022-10-11T18:44:03.543Z,83.45
2022-10-11T18:46:32.944Z,75.95
2022-10-11T18:49:02.089Z,79.47
2022-10-11T18:51:33.224Z,82.15
2022-10-11T18:54:01.597Z,86.45
2022-10-11T18:56:31.269Z,82.68
2022-10-11T18:59:00.326Z,86.63
2022-10-11T19:01:30.338Z,87.18
2022-10-11T19:04:00.348Z,83.15
2022-10-11T19:06:30.588Z,88.53
2022-10-11T19:09:03.868Z,88.57
2022-10-11T19:11:32.284Z,81.88
2022-10-11T19:14:02.608Z,85.60
2022-10-11T19:16:31.655Z,82.32
2022-10-11T19:18:59.669Z,81.03
2022-10-11T19:21:28.139Z,86.65
2022-10-11T19:23:56.931Z,91.15
2022-10-11T19:26:29.080Z,84.03
2022-10-11T19:28:58.879Z,84.22
2022-10-11T19:31:27.477Z,81.03
2022-10-11T19:33:57.245Z,82.85
2022-10-11T19:36:25.813Z,87.38
2022-10-11T19:38:56.664Z,86.10
2022-10-11T19:41:27.436Z,87.28
2022-10-11T19:43:58.071Z,76.18
2022-10-11T19:46:50.004Z,83.72
2022-10-11T19:51:45.841Z,74.28
2022-10-11T19:54:15.157Z,80.30
2022-10-11T19:56:45.061Z,81.00
2022-10-11T19:59:16.012Z,83.38
2022-10-11T20:01:49.375Z,78.13
2022-10-11T20:04:46.915Z,78.80
2022-10-11T20:07:07.148Z,78.77
2022-10-11T20:09:35.162Z,77.65
2022-10-11T20:12:04.506Z,78.40
2022-10-11T20:14:32.542Z,78.68
2022-10-11T20:17:00.611Z,88.30
2022-10-11T20:19:31.428Z,72.13
2022-10-11T20:22:00.138Z,75.78
2022-10-11T20:24:32.631Z,79.63
2022-10-11T20:27:01.910Z,80.55
2022-10-11T20:29:31.287Z,75.93
2022-10-11T20:31:59.941Z,71.75
2022-10-11T20:34:28.706Z,77.00
2022-10-11T20:36:56.668Z,85.60
2022-10-11T20:39:24.827Z,73.78
2022-10-11T20:41:52.739Z,76.10
2022-10-11T20:44:20.705Z,74.07
2022-10-11T20:46:50.052Z,75.32
2022-10-11T20:49:19.884Z,75.28
2022-10-11T20:51:47.973Z,72.20
2022-10-11T20:54:16.034Z,78.63
2022-10-11T20:56:43.981Z,73.13
2022-10-11T20:59:11.933Z,78.78
2022-10-11T21:01:41.648Z,75.43
2022-10-11T21:04:19.729Z,72.10
2022-10-11T21:06:48.478Z,75.47
2022-10-11T21:09:17.166Z,77.20
2022-10-11T21:11:45.352Z,76.25
2022-10-11T21:14:13.329Z,77.77
2022-10-11T21:16:41.374Z,77.07
2022-10-11T21:19:15.064Z,73.60
2022-10-11T21:21:43.443Z,75.38
2022-10-11T21:24:11.508Z,75.75
2022-10-11T21:26:39.567Z,74.10
2022-10-11T21:29:08.512Z,74.50
2022-10-11T21:31:37.687Z,77.32
2022-10-11T21:34:07.419Z,75.75
2022-10-11T21:36:36.813Z,75.43
2022-10-11T21:39:04.909Z,75.88
2022-10-11T21:41:34.018Z,76.50
2022-10-11T21:44:02.212Z,76.03
2022-10-11T21:49:21.034Z,71.47
2022-10-11T21:51:50.704Z,77.82
2022-10-11T21:54:19.070Z,79.13
2022-10-11T21:56:47.060Z,85.53
2022-10-11T21:59:15.018Z,86.07
2022-10-11T22:01:43.991Z,76.55
2022-10-11T22:06:40.809Z,85.30
2022-10-11T22:09:10.348Z,83.88
2022-10-11T22:11:38.600Z,82.63
2022-10-11T22:14:06.591Z,83.32
2022-10-11T22:16:34.783Z,82.10
2022-10-11T22:19:02.758Z,83.80
2022-10-11T22:21:31.757Z,80.38
2022-10-11T22:26:31.172Z,85.22
2022-10-11T22:28:59.929Z,80.88
2022-10-11T22:31:27.952Z,82.28
2022-10-11T22:33:56.861Z,83.67
2022-10-11T22:36:25.260Z,83.30
2022-10-11T22:38:54.369Z,80.15
2022-10-11T22:41:22.517Z,85.82
2022-10-11T22:43:51.925Z,83.95
2022-10-11T22:46:19.903Z,85.93
2022-10-11T22:48:47.824Z,82.85
2022-10-11T22:51:15.807Z,82.40
2022-10-11T22:53:43.858Z,82.75
2022-10-11T22:56:11.924Z,80.77
2022-10-11T22:58:40.159Z,76.03
2022-10-11T23:01:10.621Z,82.97
2022-10-11T23:03:38.941Z,82.68
2022-10-11T23:06:07.311Z,79.25
2022-10-11T23:08:35.476Z,79.32
2022-10-11T23:11:04.804Z,80.57
2022-10-11T23:13:32.897Z,87.07
2022-10-11T23:16:00.933Z,85.60
2022-10-11T23:18:30.255Z,92.77
2022-10-11T23:21:01.537Z,89.82
2022-10-11T23:23:29.699Z,85.05
2022-10-11T23:26:06.404Z,84.40
2022-10-11T23:28:35.500Z,89.03
2022-10-11T23:31:08.326Z,90.20
2022-10-11T23:33:37.931Z,91.00
2022-10-11T23:36:06.525Z,89.03
2022-10-11T23:38:34.504Z,92.25
2022-10-11T23:41:02.406Z,96.40
2022-10-11T23:43:30.379Z,90.18
2022-10-11T23:45:58.352Z,91.32
2022-10-11T23:48:26.267Z,92.00
2022-10-11T23:50:55.597Z,92.50
2022-10-11T23:53:23.561Z,99.68
2022-10-11T23:55:51.936Z,95.35
2022-10-11T23:58:19.884Z,91.57
